A21 weather

Preston Field - Blair Howe
Western Australia, Australia

Public forecast

Using degrees Celsius for public forecast. Weather courtesy of forecast.io.

Closest aviation weather report (METAR) to Preston Field - Blair Howe

Closest report is Perth Jandakot Airport, 56.1 nm (103.8 km) N. Retrieved 2020/01/28 09:30 UTC (7 minutes ago):

YPJT 280930Z AUTO 25013KT 9999 // NCD 28/18 Q1008 RF000/0000

Closest aviation forecast (TAF) to Preston Field - Blair Howe

Forecast is more than 12 hours old.

Closest forecast is Perth Jandakot Airport, 56.1 nm (103.8 km) N. Retrieved 2020/01/27 18:00 UTC (16 hours ago):

TAF YPJT 271707Z 2718/2812 16008KT CAVOK FM272000 11005KT CAVOK FM280100 25008KT CAVOK FM280400 23014KT CAVOK FM281100 21010KT 9999 SCT013